Terminal Aerodrome Forecast
Issued by NWS Cleveland, OH

Home | Current Version | Previous Version | Graphics & Text | Print | Product List | Glossary On
Versions: 1 2 3 4 5 6 7 8 9 10 11 12 13 14
000
FTUS41 KCLE 281700
TAFERI
TAF
KERI 281738Z 2818/2918 21020G32KT P6SM SCT045 BKN060
     FM282100 21015G25KT 6SM -SHRA VCTS BKN045CB OVC060
      TEMPO 2821/2823 3SM SHRA BKN030
     FM282300 25015G25KT P6SM VCSH BKN025
     FM290200 25010KT P6SM SCT035 OVC180
     FM290600 24008KT P6SM BKN030=

USA.gov is the U.S. government's official web portal to all federal, state and local government web resources and services.